sensor_id;sensor_type;location;lat;lon;timestamp;P1;durP1;ratioP1;P2;durP2;ratioP2
9445;SDS011;4761;49.490;10.908;2024-01-11T00:01:12;21.20;;;17.60;;
9445;SDS011;4761;49.490;10.908;2024-01-11T00:03:38;24.70;;;19.23;;
9445;SDS011;4761;49.490;10.908;2024-01-11T00:06:03;23.43;;;18.53;;
9445;SDS011;4761;49.490;10.908;2024-01-11T00:08:29;23.43;;;18.83;;
9445;SDS011;4761;49.490;10.908;2024-01-11T00:10:55;20.70;;;17.17;;
9445;SDS011;4761;49.490;10.908;2024-01-11T00:13:20;21.53;;;17.47;;
9445;SDS011;4761;49.490;10.908;2024-01-11T00:15:46;23.17;;;18.23;;
9445;SDS011;4761;49.490;10.908;2024-01-11T00:18:11;22.33;;;17.67;;
9445;SDS011;4761;49.490;10.908;2024-01-11T00:20:37;21.33;;;17.50;;
9445;SDS011;4761;49.490;10.908;2024-01-11T00:23:03;22.43;;;18.20;;
9445;SDS011;4761;49.490;10.908;2024-01-11T00:25:28;22.50;;;18.00;;
9445;SDS011;4761;49.490;10.908;2024-01-11T00:27:54;21.03;;;17.40;;
9445;SDS011;4761;49.490;10.908;2024-01-11T00:30:19;20.40;;;17.27;;
9445;SDS011;4761;49.490;10.908;2024-01-11T00:32:45;22.00;;;18.00;;
9445;SDS011;4761;49.490;10.908;2024-01-11T00:35:10;21.07;;;17.63;;
9445;SDS011;4761;49.490;10.908;2024-01-11T00:37:36;20.77;;;17.60;;
9445;SDS011;4761;49.490;10.908;2024-01-11T00:40:01;20.73;;;17.40;;
9445;SDS011;4761;49.490;10.908;2024-01-11T00:42:27;20.30;;;16.97;;
9445;SDS011;4761;49.490;10.908;2024-01-11T00:44:53;22.10;;;18.10;;
9445;SDS011;4761;49.490;10.908;2024-01-11T00:47:18;20.33;;;17.10;;
9445;SDS011;4761;49.490;10.908;2024-01-11T00:49:44;20.10;;;17.73;;
9445;SDS011;4761;49.490;10.908;2024-01-11T00:52:09;21.70;;;18.15;;
9445;SDS011;4761;49.490;10.908;2024-01-11T00:54:35;21.50;;;17.73;;
9445;SDS011;4761;49.490;10.908;2024-01-11T00:57:00;20.90;;;17.17;;
9445;SDS011;4761;49.490;10.908;2024-01-11T00:59:26;22.23;;;17.00;;
9445;SDS011;4761;49.490;10.908;2024-01-11T01:01:52;22.33;;;18.33;;
9445;SDS011;4761;49.490;10.908;2024-01-11T01:04:17;20.60;;;17.37;;
9445;SDS011;4761;49.490;10.908;2024-01-11T01:06:43;22.83;;;17.33;;
9445;SDS011;4761;49.490;10.908;2024-01-11T01:09:08;21.73;;;17.80;;
9445;SDS011;4761;49.490;10.908;2024-01-11T01:11:34;19.27;;;16.57;;
9445;SDS011;4761;49.490;10.908;2024-01-11T01:14:00;22.03;;;17.87;;
9445;SDS011;4761;49.490;10.908;2024-01-11T01:16:25;19.87;;;16.80;;
9445;SDS011;4761;49.490;10.908;2024-01-11T01:18:51;20.87;;;17.47;;
9445;SDS011;4761;49.490;10.908;2024-01-11T01:21:16;20.47;;;16.47;;
9445;SDS011;4761;49.490;10.908;2024-01-11T01:23:43;20.13;;;17.23;;
9445;SDS011;4761;49.490;10.908;2024-01-11T01:26:08;20.20;;;16.53;;
9445;SDS011;4761;49.490;10.908;2024-01-11T01:28:34;19.13;;;16.93;;
9445;SDS011;4761;49.490;10.908;2024-01-11T01:30:59;19.90;;;16.53;;
9445;SDS011;4761;49.490;10.908;2024-01-11T01:33:25;21.03;;;17.00;;
9445;SDS011;4761;49.490;10.908;2024-01-11T01:35:50;20.20;;;16.97;;
9445;SDS011;4761;49.490;10.908;2024-01-11T01:38:16;20.70;;;17.50;;
9445;SDS011;4761;49.490;10.908;2024-01-11T01:40:42;23.53;;;17.50;;
9445;SDS011;4761;49.490;10.908;2024-01-11T01:43:08;22.60;;;17.37;;
9445;SDS011;4761;49.490;10.908;2024-01-11T01:45:38;19.97;;;17.27;;
9445;SDS011;4761;49.490;10.908;2024-01-11T01:48:03;21.43;;;16.87;;
9445;SDS011;4761;49.490;10.908;2024-01-11T01:50:29;21.90;;;17.47;;
9445;SDS011;4761;49.490;10.908;2024-01-11T01:52:55;20.40;;;17.07;;
9445;SDS011;4761;49.490;10.908;2024-01-11T01:55:22;20.73;;;17.43;;
9445;SDS011;4761;49.490;10.908;2024-01-11T01:57:48;20.33;;;17.43;;
9445;SDS011;4761;49.490;10.908;2024-01-11T02:00:16;20.83;;;17.53;;
9445;SDS011;4761;49.490;10.908;2024-01-11T02:02:43;21.27;;;18.20;;
9445;SDS011;4761;49.490;10.908;2024-01-11T02:05:12;18.83;;;16.07;;
9445;SDS011;4761;49.490;10.908;2024-01-11T02:07:39;20.50;;;17.53;;
9445;SDS011;4761;49.490;10.908;2024-01-11T02:10:06;19.40;;;16.53;;
9445;SDS011;4761;49.490;10.908;2024-01-11T02:12:32;19.50;;;17.10;;
9445;SDS011;4761;49.490;10.908;2024-01-11T02:15:00;20.20;;;17.33;;
9445;SDS011;4761;49.490;10.908;2024-01-11T02:17:28;19.53;;;17.20;;
9445;SDS011;4761;49.490;10.908;2024-01-11T02:19:53;21.67;;;18.13;;
9445;SDS011;4761;49.490;10.908;2024-01-11T02:22:20;20.10;;;17.63;;
9445;SDS011;4761;49.490;10.908;2024-01-11T02:24:49;20.77;;;17.17;;
9445;SDS011;4761;49.490;10.908;2024-01-11T02:27:14;19.83;;;16.87;;
9445;SDS011;4761;49.490;10.908;2024-01-11T02:29:40;21.48;;;17.60;;
9445;SDS011;4761;49.490;10.908;2024-01-11T02:32:06;18.47;;;16.10;;
9445;SDS011;4761;49.490;10.908;2024-01-11T02:34:31;20.63;;;17.47;;
9445;SDS011;4761;49.490;10.908;2024-01-11T02:36:58;21.37;;;17.17;;
9445;SDS011;4761;49.490;10.908;2024-01-11T02:39:24;20.88;;;17.25;;
9445;SDS011;4761;49.490;10.908;2024-01-11T02:41:51;20.57;;;17.13;;
9445;SDS011;4761;49.490;10.908;2024-01-11T02:44:18;20.37;;;16.90;;
9445;SDS011;4761;49.490;10.908;2024-01-11T02:46:43;20.07;;;17.33;;
9445;SDS011;4761;49.490;10.908;2024-01-11T02:49:09;20.97;;;17.43;;
9445;SDS011;4761;49.490;10.908;2024-01-11T02:51:34;18.83;;;15.57;;
9445;SDS011;4761;49.490;10.908;2024-01-11T02:54:01;19.10;;;16.83;;
9445;SDS011;4761;49.490;10.908;2024-01-11T02:56:27;20.60;;;17.50;;
9445;SDS011;4761;49.490;10.908;2024-01-11T02:58:52;20.93;;;17.27;;
9445;SDS011;4761;49.490;10.908;2024-01-11T03:01:18;19.97;;;17.13;;
9445;SDS011;4761;49.490;10.908;2024-01-11T03:03:43;20.47;;;17.30;;
9445;SDS011;4761;49.490;10.908;2024-01-11T03:06:09;20.38;;;17.50;;
9445;SDS011;4761;49.490;10.908;2024-01-11T03:08:35;20.80;;;17.47;;
9445;SDS011;4761;49.490;10.908;2024-01-11T03:11:00;20.80;;;17.27;;
9445;SDS011;4761;49.490;10.908;2024-01-11T03:13:26;19.73;;;16.90;;
9445;SDS011;4761;49.490;10.908;2024-01-11T03:15:52;20.47;;;16.87;;
9445;SDS011;4761;49.490;10.908;2024-01-11T03:18:17;20.00;;;17.20;;
9445;SDS011;4761;49.490;10.908;2024-01-11T03:20:43;19.67;;;16.67;;
9445;SDS011;4761;49.490;10.908;2024-01-11T03:23:08;20.70;;;16.97;;
9445;SDS011;4761;49.490;10.908;2024-01-11T03:25:34;20.50;;;17.40;;
9445;SDS011;4761;49.490;10.908;2024-01-11T03:27:59;19.97;;;16.70;;
9445;SDS011;4761;49.490;10.908;2024-01-11T03:30:25;21.65;;;17.98;;
9445;SDS011;4761;49.490;10.908;2024-01-11T03:32:50;19.23;;;16.17;;
9445;SDS011;4761;49.490;10.908;2024-01-11T03:35:17;20.87;;;17.67;;
9445;SDS011;4761;49.490;10.908;2024-01-11T03:37:43;18.93;;;16.40;;
9445;SDS011;4761;49.490;10.908;2024-01-11T03:40:09;18.83;;;16.40;;
9445;SDS011;4761;49.490;10.908;2024-01-11T03:42:35;18.10;;;16.17;;
9445;SDS011;4761;49.490;10.908;2024-01-11T03:45:00;20.20;;;16.70;;
9445;SDS011;4761;49.490;10.908;2024-01-11T03:47:26;18.60;;;16.20;;
9445;SDS011;4761;49.490;10.908;2024-01-11T03:49:51;18.70;;;16.17;;
9445;SDS011;4761;49.490;10.908;2024-01-11T03:52:17;18.97;;;16.93;;
9445;SDS011;4761;49.490;10.908;2024-01-11T03:54:42;20.03;;;16.40;;
9445;SDS011;4761;49.490;10.908;2024-01-11T03:57:08;19.10;;;16.23;;
9445;SDS011;4761;49.490;10.908;2024-01-11T03:59:33;21.83;;;16.93;;
9445;SDS011;4761;49.490;10.908;2024-01-11T04:02:00;19.00;;;16.70;;
9445;SDS011;4761;49.490;10.908;2024-01-11T04:04:25;19.03;;;15.80;;
9445;SDS011;4761;49.490;10.908;2024-01-11T04:06:51;19.13;;;16.93;;
9445;SDS011;4761;49.490;10.908;2024-01-11T04:09:17;21.13;;;16.60;;
9445;SDS011;4761;49.490;10.908;2024-01-11T04:11:43;19.97;;;16.10;;
9445;SDS011;4761;49.490;10.908;2024-01-11T04:14:08;20.10;;;16.80;;
9445;SDS011;4761;49.490;10.908;2024-01-11T04:16:34;21.53;;;17.07;;
9445;SDS011;4761;49.490;10.908;2024-01-11T04:19:04;19.53;;;16.70;;
9445;SDS011;4761;49.490;10.908;2024-01-11T04:21:29;19.50;;;16.33;;
9445;SDS011;4761;49.490;10.908;2024-01-11T04:23:55;19.73;;;16.33;;
9445;SDS011;4761;49.490;10.908;2024-01-11T04:26:21;19.03;;;16.13;;
9445;SDS011;4761;49.490;10.908;2024-01-11T04:28:47;19.50;;;16.33;;
9445;SDS011;4761;49.490;10.908;2024-01-11T04:31:14;20.10;;;16.97;;
9445;SDS011;4761;49.490;10.908;2024-01-11T04:33:42;19.13;;;16.27;;
9445;SDS011;4761;49.490;10.908;2024-01-11T04:36:08;18.97;;;16.07;;
9445;SDS011;4761;49.490;10.908;2024-01-11T04:38:34;21.37;;;17.73;;
9445;SDS011;4761;49.490;10.908;2024-01-11T04:41:00;20.10;;;16.77;;
9445;SDS011;4761;49.490;10.908;2024-01-11T04:43:25;18.73;;;16.20;;
9445;SDS011;4761;49.490;10.908;2024-01-11T04:45:51;19.33;;;16.43;;
9445;SDS011;4761;49.490;10.908;2024-01-11T04:48:17;19.93;;;16.93;;
9445;SDS011;4761;49.490;10.908;2024-01-11T04:50:43;19.83;;;16.83;;
9445;SDS011;4761;49.490;10.908;2024-01-11T04:53:09;19.20;;;17.13;;
9445;SDS011;4761;49.490;10.908;2024-01-11T04:55:35;18.00;;;15.57;;
9445;SDS011;4761;49.490;10.908;2024-01-11T04:58:00;18.97;;;15.83;;
9445;SDS011;4761;49.490;10.908;2024-01-11T05:00:26;20.60;;;16.80;;
9445;SDS011;4761;49.490;10.908;2024-01-11T05:02:51;20.63;;;17.27;;
9445;SDS011;4761;49.490;10.908;2024-01-11T05:05:17;21.00;;;16.90;;
9445;SDS011;4761;49.490;10.908;2024-01-11T05:07:42;20.43;;;16.93;;
9445;SDS011;4761;49.490;10.908;2024-01-11T05:10:08;22.13;;;17.73;;
9445;SDS011;4761;49.490;10.908;2024-01-11T05:12:33;20.93;;;16.57;;
9445;SDS011;4761;49.490;10.908;2024-01-11T05:14:59;20.40;;;17.00;;
9445;SDS011;4761;49.490;10.908;2024-01-11T05:17:25;19.00;;;16.53;;
9445;SDS011;4761;49.490;10.908;2024-01-11T05:19:51;20.80;;;16.23;;
9445;SDS011;4761;49.490;10.908;2024-01-11T05:22:17;20.92;;;17.25;;
9445;SDS011;4761;49.490;10.908;2024-01-11T05:24:43;19.47;;;16.57;;
9445;SDS011;4761;49.490;10.908;2024-01-11T05:27:08;20.47;;;16.40;;
9445;SDS011;4761;49.490;10.908;2024-01-11T05:29:34;20.43;;;16.47;;
9445;SDS011;4761;49.490;10.908;2024-01-11T05:31:59;20.17;;;16.77;;
9445;SDS011;4761;49.490;10.908;2024-01-11T05:34:25;20.93;;;17.30;;
9445;SDS011;4761;49.490;10.908;2024-01-11T05:36:50;19.10;;;16.57;;
9445;SDS011;4761;49.490;10.908;2024-01-11T05:39:16;19.10;;;16.63;;
9445;SDS011;4761;49.490;10.908;2024-01-11T05:41:44;20.40;;;17.70;;
9445;SDS011;4761;49.490;10.908;2024-01-11T05:44:10;20.37;;;17.07;;
9445;SDS011;4761;49.490;10.908;2024-01-11T05:46:36;19.13;;;16.60;;
9445;SDS011;4761;49.490;10.908;2024-01-11T05:49:01;21.53;;;18.37;;
9445;SDS011;4761;49.490;10.908;2024-01-11T05:51:27;20.23;;;16.87;;
9445;SDS011;4761;49.490;10.908;2024-01-11T05:53:52;19.63;;;16.70;;
9445;SDS011;4761;49.490;10.908;2024-01-11T05:56:18;19.83;;;16.63;;
9445;SDS011;4761;49.490;10.908;2024-01-11T05:58:45;18.80;;;16.67;;
9445;SDS011;4761;49.490;10.908;2024-01-11T06:01:11;20.33;;;17.70;;
9445;SDS011;4761;49.490;10.908;2024-01-11T06:03:37;18.47;;;16.43;;
9445;SDS011;4761;49.490;10.908;2024-01-11T06:06:03;21.37;;;17.00;;
9445;SDS011;4761;49.490;10.908;2024-01-11T06:08:30;21.87;;;17.70;;
9445;SDS011;4761;49.490;10.908;2024-01-11T06:10:56;21.27;;;17.90;;
9445;SDS011;4761;49.490;10.908;2024-01-11T06:13:22;21.70;;;16.97;;
9445;SDS011;4761;49.490;10.908;2024-01-11T06:15:47;21.73;;;17.27;;
9445;SDS011;4761;49.490;10.908;2024-01-11T06:18:13;18.47;;;16.40;;
9445;SDS011;4761;49.490;10.908;2024-01-11T06:20:38;19.37;;;17.33;;
9445;SDS011;4761;49.490;10.908;2024-01-11T06:23:04;20.70;;;17.13;;
9445;SDS011;4761;49.490;10.908;2024-01-11T06:25:29;21.57;;;17.93;;
9445;SDS011;4761;49.490;10.908;2024-01-11T06:27:55;21.73;;;17.63;;
9445;SDS011;4761;49.490;10.908;2024-01-11T06:30:20;22.80;;;18.53;;
9445;SDS011;4761;49.490;10.908;2024-01-11T06:32:46;21.87;;;18.30;;
9445;SDS011;4761;49.490;10.908;2024-01-11T06:35:11;20.93;;;17.80;;
9445;SDS011;4761;49.490;10.908;2024-01-11T06:37:37;21.83;;;18.17;;
9445;SDS011;4761;49.490;10.908;2024-01-11T06:40:02;20.90;;;17.73;;
9445;SDS011;4761;49.490;10.908;2024-01-11T06:42:29;23.27;;;18.00;;
9445;SDS011;4761;49.490;10.908;2024-01-11T06:44:55;21.60;;;18.03;;
9445;SDS011;4761;49.490;10.908;2024-01-11T06:47:21;22.50;;;18.47;;
9445;SDS011;4761;49.490;10.908;2024-01-11T06:49:46;24.10;;;19.43;;
9445;SDS011;4761;49.490;10.908;2024-01-11T06:52:12;24.70;;;19.77;;
9445;SDS011;4761;49.490;10.908;2024-01-11T06:54:39;23.53;;;19.80;;
9445;SDS011;4761;49.490;10.908;2024-01-11T06:57:04;25.30;;;20.80;;
9445;SDS011;4761;49.490;10.908;2024-01-11T06:59:30;26.40;;;20.10;;
9445;SDS011;4761;49.490;10.908;2024-01-11T07:01:55;27.07;;;21.43;;
9445;SDS011;4761;49.490;10.908;2024-01-11T07:04:21;26.33;;;21.13;;
9445;SDS011;4761;49.490;10.908;2024-01-11T07:06:46;27.87;;;20.97;;
9445;SDS011;4761;49.490;10.908;2024-01-11T07:09:12;25.53;;;20.80;;
9445;SDS011;4761;49.490;10.908;2024-01-11T07:11:37;28.87;;;20.60;;
9445;SDS011;4761;49.490;10.908;2024-01-11T07:14:03;28.00;;;21.50;;
9445;SDS011;4761;49.490;10.908;2024-01-11T07:16:29;29.23;;;21.60;;
9445;SDS011;4761;49.490;10.908;2024-01-11T07:18:55;26.27;;;21.43;;
9445;SDS011;4761;49.490;10.908;2024-01-11T07:21:23;28.47;;;21.03;;
9445;SDS011;4761;49.490;10.908;2024-01-11T07:23:56;28.33;;;20.93;;
9445;SDS011;4761;49.490;10.908;2024-01-11T07:26:22;27.60;;;21.20;;
9445;SDS011;4761;49.490;10.908;2024-01-11T07:28:49;27.07;;;21.13;;
9445;SDS011;4761;49.490;10.908;2024-01-11T07:31:14;25.00;;;20.43;;
9445;SDS011;4761;49.490;10.908;2024-01-11T07:33:40;25.60;;;21.00;;
9445;SDS011;4761;49.490;10.908;2024-01-11T07:36:06;26.27;;;20.33;;
9445;SDS011;4761;49.490;10.908;2024-01-11T07:38:32;25.20;;;20.50;;
9445;SDS011;4761;49.490;10.908;2024-01-11T07:40:57;26.03;;;21.63;;
9445;SDS011;4761;49.490;10.908;2024-01-11T07:43:23;25.13;;;20.17;;
9445;SDS011;4761;49.490;10.908;2024-01-11T07:45:48;24.23;;;20.20;;
9445;SDS011;4761;49.490;10.908;2024-01-11T07:48:15;25.30;;;19.03;;
9445;SDS011;4761;49.490;10.908;2024-01-11T07:50:40;25.73;;;20.83;;
9445;SDS011;4761;49.490;10.908;2024-01-11T07:53:06;22.03;;;18.33;;
9445;SDS011;4761;49.490;10.908;2024-01-11T07:55:31;23.03;;;18.47;;
9445;SDS011;4761;49.490;10.908;2024-01-11T07:57:57;22.67;;;19.00;;
9445;SDS011;4761;49.490;10.908;2024-01-11T08:00:22;22.23;;;18.80;;
9445;SDS011;4761;49.490;10.908;2024-01-11T08:02:48;22.80;;;17.90;;
9445;SDS011;4761;49.490;10.908;2024-01-11T08:05:14;24.23;;;19.00;;
9445;SDS011;4761;49.490;10.908;2024-01-11T08:07:40;22.30;;;18.33;;
9445;SDS011;4761;49.490;10.908;2024-01-11T08:10:07;23.43;;;18.67;;
9445;SDS011;4761;49.490;10.908;2024-01-11T08:12:34;20.87;;;17.83;;
9445;SDS011;4761;49.490;10.908;2024-01-11T08:14:59;24.58;;;19.30;;
9445;SDS011;4761;49.490;10.908;2024-01-11T08:17:25;21.47;;;19.03;;
9445;SDS011;4761;49.490;10.908;2024-01-11T08:19:50;21.47;;;18.00;;
9445;SDS011;4761;49.490;10.908;2024-01-11T08:22:16;21.30;;;18.03;;
9445;SDS011;4761;49.490;10.908;2024-01-11T08:24:41;20.27;;;17.57;;
9445;SDS011;4761;49.490;10.908;2024-01-11T08:27:07;20.93;;;18.23;;
9445;SDS011;4761;49.490;10.908;2024-01-11T08:29:32;21.03;;;17.63;;
9445;SDS011;4761;49.490;10.908;2024-01-11T08:31:58;21.93;;;18.50;;
9445;SDS011;4761;49.490;10.908;2024-01-11T08:34:24;22.97;;;17.80;;
9445;SDS011;4761;49.490;10.908;2024-01-11T08:36:51;23.07;;;17.90;;
9445;SDS011;4761;49.490;10.908;2024-01-11T08:39:17;22.03;;;18.53;;
9445;SDS011;4761;49.490;10.908;2024-01-11T08:41:42;23.57;;;19.33;;
9445;SDS011;4761;49.490;10.908;2024-01-11T08:44:09;21.30;;;18.07;;
9445;SDS011;4761;49.490;10.908;2024-01-11T08:46:34;22.27;;;18.77;;
9445;SDS011;4761;49.490;10.908;2024-01-11T08:49:00;22.17;;;18.43;;
9445;SDS011;4761;49.490;10.908;2024-01-11T08:51:28;21.90;;;18.43;;
9445;SDS011;4761;49.490;10.908;2024-01-11T08:53:54;22.53;;;18.60;;
9445;SDS011;4761;49.490;10.908;2024-01-11T08:56:19;21.73;;;19.13;;
9445;SDS011;4761;49.490;10.908;2024-01-11T08:58:45;22.03;;;18.43;;
9445;SDS011;4761;49.490;10.908;2024-01-11T09:01:11;19.97;;;17.17;;
9445;SDS011;4761;49.490;10.908;2024-01-11T09:03:37;22.07;;;18.47;;
9445;SDS011;4761;49.490;10.908;2024-01-11T09:06:03;21.27;;;18.17;;
9445;SDS011;4761;49.490;10.908;2024-01-11T09:08:29;20.73;;;17.80;;
9445;SDS011;4761;49.490;10.908;2024-01-11T09:10:57;20.53;;;18.17;;
9445;SDS011;4761;49.490;10.908;2024-01-11T09:13:23;22.40;;;18.33;;
9445;SDS011;4761;49.490;10.908;2024-01-11T09:15:51;22.60;;;17.47;;
9445;SDS011;4761;49.490;10.908;2024-01-11T09:18:17;24.90;;;17.67;;
9445;SDS011;4761;49.490;10.908;2024-01-11T09:20:43;19.83;;;17.40;;
9445;SDS011;4761;49.490;10.908;2024-01-11T09:23:08;20.33;;;17.30;;
9445;SDS011;4761;49.490;10.908;2024-01-11T09:25:34;20.57;;;17.83;;
9445;SDS011;4761;49.490;10.908;2024-01-11T09:28:00;19.73;;;16.93;;
9445;SDS011;4761;49.490;10.908;2024-01-11T09:30:25;19.93;;;16.80;;
9445;SDS011;4761;49.490;10.908;2024-01-11T09:32:51;23.35;;;18.17;;
9445;SDS011;4761;49.490;10.908;2024-01-11T09:35:17;20.83;;;17.17;;
9445;SDS011;4761;49.490;10.908;2024-01-11T09:37:43;19.10;;;16.60;;
9445;SDS011;4761;49.490;10.908;2024-01-11T09:40:11;20.20;;;17.33;;
9445;SDS011;4761;49.490;10.908;2024-01-11T09:42:37;18.93;;;16.10;;
9445;SDS011;4761;49.490;10.908;2024-01-11T09:45:12;18.43;;;16.43;;
9445;SDS011;4761;49.490;10.908;2024-01-11T09:47:40;21.13;;;16.03;;
9445;SDS011;4761;49.490;10.908;2024-01-11T09:50:07;20.80;;;16.13;;
9445;SDS011;4761;49.490;10.908;2024-01-11T09:52:33;18.77;;;16.27;;
9445;SDS011;4761;49.490;10.908;2024-01-11T09:54:59;21.07;;;17.43;;
9445;SDS011;4761;49.490;10.908;2024-01-11T09:57:29;19.90;;;15.67;;
9445;SDS011;4761;49.490;10.908;2024-01-11T09:59:56;19.60;;;16.57;;
9445;SDS011;4761;49.490;10.908;2024-01-11T10:02:22;19.80;;;16.40;;
9445;SDS011;4761;49.490;10.908;2024-01-11T10:04:49;17.10;;;15.30;;
9445;SDS011;4761;49.490;10.908;2024-01-11T10:07:17;18.93;;;16.17;;
9445;SDS011;4761;49.490;10.908;2024-01-11T10:09:46;15.90;;;13.83;;
9445;SDS011;4761;49.490;10.908;2024-01-11T10:12:11;16.53;;;14.70;;
9445;SDS011;4761;49.490;10.908;2024-01-11T10:14:37;16.42;;;14.43;;
9445;SDS011;4761;49.490;10.908;2024-01-11T10:17:03;15.00;;;13.40;;
9445;SDS011;4761;49.490;10.908;2024-01-11T10:19:30;15.67;;;13.57;;
9445;SDS011;4761;49.490;10.908;2024-01-11T10:21:55;15.80;;;13.70;;
9445;SDS011;4761;49.490;10.908;2024-01-11T10:24:22;15.53;;;13.87;;
9445;SDS011;4761;49.490;10.908;2024-01-11T10:26:51;16.20;;;13.77;;
9445;SDS011;4761;49.490;10.908;2024-01-11T10:29:20;17.67;;;13.73;;
9445;SDS011;4761;49.490;10.908;2024-01-11T10:31:46;15.07;;;13.10;;
9445;SDS011;4761;49.490;10.908;2024-01-11T10:34:11;15.47;;;13.80;;
9445;SDS011;4761;49.490;10.908;2024-01-11T10:36:37;16.77;;;14.37;;
9445;SDS011;4761;49.490;10.908;2024-01-11T10:39:02;15.57;;;13.60;;
9445;SDS011;4761;49.490;10.908;2024-01-11T10:41:31;16.10;;;14.23;;
9445;SDS011;4761;49.490;10.908;2024-01-11T10:44:02;17.30;;;14.37;;
9445;SDS011;4761;49.490;10.908;2024-01-11T10:46:28;16.60;;;14.33;;
9445;SDS011;4761;49.490;10.908;2024-01-11T10:48:55;15.60;;;13.47;;
9445;SDS011;4761;49.490;10.908;2024-01-11T10:51:24;16.07;;;14.20;;
9445;SDS011;4761;49.490;10.908;2024-01-11T10:53:53;15.47;;;13.00;;
9445;SDS011;4761;49.490;10.908;2024-01-11T10:56:19;15.50;;;13.33;;
9445;SDS011;4761;49.490;10.908;2024-01-11T10:58:45;15.83;;;13.00;;
9445;SDS011;4761;49.490;10.908;2024-01-11T11:01:12;17.33;;;13.63;;
9445;SDS011;4761;49.490;10.908;2024-01-11T11:03:39;15.30;;;13.43;;
9445;SDS011;4761;49.490;10.908;2024-01-11T11:06:07;17.93;;;14.17;;
9445;SDS011;4761;49.490;10.908;2024-01-11T11:08:35;16.30;;;13.80;;
9445;SDS011;4761;49.490;10.908;2024-01-11T11:11:02;15.03;;;13.43;;
9445;SDS011;4761;49.490;10.908;2024-01-11T11:13:31;15.00;;;13.03;;
9445;SDS011;4761;49.490;10.908;2024-01-11T11:15:57;15.43;;;13.57;;
9445;SDS011;4761;49.490;10.908;2024-01-11T11:18:24;16.83;;;13.07;;
9445;SDS011;4761;49.490;10.908;2024-01-11T11:20:50;15.80;;;13.43;;
9445;SDS011;4761;49.490;10.908;2024-01-11T11:23:17;15.57;;;12.77;;
9445;SDS011;4761;49.490;10.908;2024-01-11T11:25:47;14.80;;;13.20;;
9445;SDS011;4761;49.490;10.908;2024-01-11T11:28:15;15.67;;;13.80;;
9445;SDS011;4761;49.490;10.908;2024-01-11T11:30:43;15.83;;;13.47;;
9445;SDS011;4761;49.490;10.908;2024-01-11T11:33:19;14.80;;;13.20;;
9445;SDS011;4761;49.490;10.908;2024-01-11T11:35:48;15.20;;;13.17;;
9445;SDS011;4761;49.490;10.908;2024-01-11T11:38:20;17.00;;;13.70;;
9445;SDS011;4761;49.490;10.908;2024-01-11T11:40:47;15.70;;;13.50;;
9445;SDS011;4761;49.490;10.908;2024-01-11T11:43:17;15.40;;;13.13;;
9445;SDS011;4761;49.490;10.908;2024-01-11T11:45:43;14.97;;;12.87;;
9445;SDS011;4761;49.490;10.908;2024-01-11T11:51:28;14.30;;;12.80;;
9445;SDS011;4761;49.490;10.908;2024-01-11T11:53:47;15.60;;;13.90;;
9445;SDS011;4761;49.490;10.908;2024-01-11T11:56:14;16.07;;;13.07;;
9445;SDS011;4761;49.490;10.908;2024-01-11T11:58:46;16.20;;;13.95;;
9445;SDS011;4761;49.490;10.908;2024-01-11T12:01:13;15.07;;;13.07;;
9445;SDS011;4761;49.490;10.908;2024-01-11T12:03:40;15.40;;;13.53;;
9445;SDS011;4761;49.490;10.908;2024-01-11T12:06:09;14.97;;;12.20;;
9445;SDS011;4761;49.490;10.908;2024-01-11T12:08:35;17.60;;;13.17;;
9445;SDS011;4761;49.490;10.908;2024-01-11T12:11:01;16.13;;;13.07;;
9445;SDS011;4761;49.490;10.908;2024-01-11T12:13:28;14.53;;;12.50;;
9445;SDS011;4761;49.490;10.908;2024-01-11T12:15:55;14.83;;;13.10;;
9445;SDS011;4761;49.490;10.908;2024-01-11T12:18:21;14.27;;;12.70;;
9445;SDS011;4761;49.490;10.908;2024-01-11T12:20:47;15.60;;;13.07;;
9445;SDS011;4761;49.490;10.908;2024-01-11T12:23:12;16.93;;;13.47;;
9445;SDS011;4761;49.490;10.908;2024-01-11T12:25:41;15.70;;;13.50;;
9445;SDS011;4761;49.490;10.908;2024-01-11T12:28:07;16.23;;;13.17;;
9445;SDS011;4761;49.490;10.908;2024-01-11T12:30:33;15.63;;;12.40;;
9445;SDS011;4761;49.490;10.908;2024-01-11T12:32:58;15.67;;;13.23;;
9445;SDS011;4761;49.490;10.908;2024-01-11T12:35:26;16.50;;;13.03;;
9445;SDS011;4761;49.490;10.908;2024-01-11T12:37:55;14.93;;;12.23;;
9445;SDS011;4761;49.490;10.908;2024-01-11T12:40:40;15.77;;;12.40;;
9445;SDS011;4761;49.490;10.908;2024-01-11T12:43:06;13.93;;;12.30;;
9445;SDS011;4761;49.490;10.908;2024-01-11T12:45:35;15.93;;;12.50;;
9445;SDS011;4761;49.490;10.908;2024-01-11T12:48:02;14.93;;;12.30;;
9445;SDS011;4761;49.490;10.908;2024-01-11T12:50:28;13.57;;;11.80;;
9445;SDS011;4761;49.490;10.908;2024-01-11T12:53:05;13.40;;;11.40;;
9445;SDS011;4761;49.490;10.908;2024-01-11T12:55:33;14.27;;;12.03;;
9445;SDS011;4761;49.490;10.908;2024-01-11T12:58:08;15.97;;;12.40;;
9445;SDS011;4761;49.490;10.908;2024-01-11T13:00:35;12.80;;;11.43;;
9445;SDS011;4761;49.490;10.908;2024-01-11T13:03:01;13.53;;;11.70;;
9445;SDS011;4761;49.490;10.908;2024-01-11T13:05:27;14.17;;;12.00;;
9445;SDS011;4761;49.490;10.908;2024-01-11T13:07:53;14.30;;;12.03;;
9445;SDS011;4761;49.490;10.908;2024-01-11T13:10:19;15.87;;;12.23;;
9445;SDS011;4761;49.490;10.908;2024-01-11T13:12:44;13.67;;;11.47;;
9445;SDS011;4761;49.490;10.908;2024-01-11T13:15:10;15.47;;;12.70;;
9445;SDS011;4761;49.490;10.908;2024-01-11T13:17:36;15.30;;;13.23;;
9445;SDS011;4761;49.490;10.908;2024-01-11T13:20:01;13.43;;;11.77;;
9445;SDS011;4761;49.490;10.908;2024-01-11T13:22:27;13.63;;;11.17;;
9445;SDS011;4761;49.490;10.908;2024-01-11T13:24:53;14.17;;;12.20;;
9445;SDS011;4761;49.490;10.908;2024-01-11T13:27:18;13.63;;;11.33;;
9445;SDS011;4761;49.490;10.908;2024-01-11T13:29:44;15.90;;;11.40;;
9445;SDS011;4761;49.490;10.908;2024-01-11T13:32:09;12.73;;;10.87;;
9445;SDS011;4761;49.490;10.908;2024-01-11T13:34:35;12.87;;;10.30;;
9445;SDS011;4761;49.490;10.908;2024-01-11T13:37:01;13.97;;;11.10;;
9445;SDS011;4761;49.490;10.908;2024-01-11T13:39:28;16.70;;;10.80;;
9445;SDS011;4761;49.490;10.908;2024-01-11T13:41:53;12.47;;;10.70;;
9445;SDS011;4761;49.490;10.908;2024-01-11T13:44:19;12.47;;;10.70;;
9445;SDS011;4761;49.490;10.908;2024-01-11T13:46:44;12.23;;;10.73;;
9445;SDS011;4761;49.490;10.908;2024-01-11T13:49:10;12.23;;;10.57;;
9445;SDS011;4761;49.490;10.908;2024-01-11T13:51:36;12.20;;;10.30;;
9445;SDS011;4761;49.490;10.908;2024-01-11T13:54:02;12.40;;;10.70;;
9445;SDS011;4761;49.490;10.908;2024-01-11T13:56:28;11.23;;;9.87;;
9445;SDS011;4761;49.490;10.908;2024-01-11T13:58:54;12.30;;;9.70;;
9445;SDS011;4761;49.490;10.908;2024-01-11T14:01:20;11.53;;;10.33;;
9445;SDS011;4761;49.490;10.908;2024-01-11T14:03:45;11.27;;;10.03;;
9445;SDS011;4761;49.490;10.908;2024-01-11T14:06:11;12.47;;;10.30;;
9445;SDS011;4761;49.490;10.908;2024-01-11T14:08:37;12.47;;;10.07;;
9445;SDS011;4761;49.490;10.908;2024-01-11T14:11:03;13.40;;;10.57;;
9445;SDS011;4761;49.490;10.908;2024-01-11T14:13:29;11.70;;;10.50;;
9445;SDS011;4761;49.490;10.908;2024-01-11T14:15:55;12.30;;;10.10;;
9445;SDS011;4761;49.490;10.908;2024-01-11T14:18:21;11.27;;;10.07;;
9445;SDS011;4761;49.490;10.908;2024-01-11T14:20:47;12.52;;;10.77;;
9445;SDS011;4761;49.490;10.908;2024-01-11T14:23:13;12.40;;;10.40;;
9445;SDS011;4761;49.490;10.908;2024-01-11T14:25:39;12.50;;;10.23;;
9445;SDS011;4761;49.490;10.908;2024-01-11T14:28:04;10.20;;;9.10;;
9445;SDS011;4761;49.490;10.908;2024-01-11T14:30:30;11.87;;;10.13;;
9445;SDS011;4761;49.490;10.908;2024-01-11T14:32:55;10.63;;;9.20;;